Historique des mesures à Cassis (13260), France
Quotidien Résumé Juin 18, 2022 Unités:  Métrique/US    US   Métrique
Quotidien Hebdomadaire Mensuel Annuel
  Maximum: Minimum: Moyenne:
Température: 58.8 °F /  14.9 °C 52.7 °F /  11.5 °C 55.6 °F /  13.1 °C
Point de rosée: 53.2 °F /  11.8 °C 38.1 °F /  3.4 °C 43.7 °F /  6.5 °C
Humidité: 88% 50% 65%
Vitesse du vent: 33.3mph /  53.6km/h - 14.8mph /  23.8km/h
Rafales: 39.1mph /  63km/h - -
Vent- - West
Pression: 29.8 in /  1009.2 hPa 29.7 in /  1005.5 hPa -
Précipitations: 0 in /  0.0 mm    
Historical Graphs
 
 
Mesures pour : Juin 18, 2022
Heure Temperature Point de rosée Pression Vent Vitesse du vent Rafales Humidité Pluie (par heure)
00:10 56.8 °F /  13.8 °C 53.2 °F /  11.8 °C 29.7in /  1006.4hPa WNW 1.6mph /  2.5km/h 2.7mph /  4.3km/h 88% 0in /  0.0mm
01:10 56.8 °F /  13.8 °C 53.1 °F /  11.7 °C 29.7in /  1005.9hPa Calm     87% 0in /  0.0mm
02:10 56.3 °F /  13.5 °C 52.2 °F /  11.2 °C 29.7in /  1005.8hPa WNW 4mph /  6.5km/h 8.5mph /  13.7km/h 86% 0in /  0.0mm
03:10 56.1 °F /  13.4 °C 50.7 °F /  10.4 °C 29.7in /  1006.0hPa NNW 5.2mph /  8.3km/h 15.4mph /  24.8km/h 82% 0in /  0.0mm
04:10 55.2 °F /  12.9 °C 48.7 °F /  9.3 °C 29.7in /  1005.5hPa North 11.6mph /  18.7km/h 17.6mph /  28.4km/h 79% 0in /  0.0mm
05:10 54.3 °F /  12.4 °C 47.3 °F /  8.5 °C 29.7in /  1006.3hPa NW 16.3mph /  26.3km/h 23.5mph /  37.8km/h 77% 0in /  0.0mm
06:10 53.8 °F /  12.1 °C 46.4 °F /  8 °C 29.7in /  1006.8hPa North 8.7mph /  14km/h 18.3mph /  29.5km/h 76% 0in /  0.0mm
07:10 53.4 °F /  11.9 °C 45.3 °F /  7.4 °C 29.8in /  1007.5hPa NNW 13.4mph /  21.6km/h 23.9mph /  38.5km/h 74% 0in /  0.0mm
08:10 53.4 °F /  11.9 °C 43.9 °F /  6.6 °C 29.8in /  1008.2hPa NNW 10.5mph /  16.9km/h 18.6mph /  29.9km/h 70% 0in /  0.0mm
09:10 55 °F /  12.8 °C 42.6 °F /  5.9 °C 29.8in /  1008.7hPa NW 22.6mph /  36.4km/h 33.6mph /  54km/h 63% 0in /  0.0mm
10:10 54.7 °F /  12.6 °C 42.6 °F /  5.9 °C 29.8in /  1008.8hPa NNW 12.6mph /  20.2km/h 39.1mph /  63km/h 64% 0in /  0.0mm
11:10 56.1 °F /  13.4 °C 43.3 °F /  6.3 °C 29.8in /  1009.2hPa NNW 19.7mph /  31.7km/h 26.2mph /  42.1km/h 62% 0in /  0.0mm
12:10 56.8 °F /  13.8 °C 42.6 °F /  5.9 °C 29.7in /  1006.6hPa North 33.3mph /  53.6km/h 33.3mph /  53.6km/h 59% 0in /  0.0mm
13:10 57.9 °F /  14.4 °C 41.9 °F /  5.5 °C 29.7in /  1006.7hPa NW 22.8mph /  36.7km/h 28.8mph /  46.4km/h 55% 0in /  0.0mm
14:10 58.8 °F /  14.9 °C 41.2 °F /  5.1 °C 29.7in /  1006.8hPa NNW 23.9mph /  38.5km/h 33.8mph /  54.4km/h 52% 0in /  0.0mm
15:10 58.5 °F /  14.7 °C 39.9 °F /  4.4 °C 29.7in /  1006.2hPa NNW 19.9mph /  32km/h 31.6mph /  50.8km/h 50% 0in /  0.0mm
16:10 57.4 °F /  14.1 °C 40.8 °F /  4.9 °C 29.7in /  1007.1hPa NNW 9.8mph /  15.8km/h 15.2mph /  24.5km/h 54% 0in /  0.0mm
17:10 56.1 °F /  13.4 °C 40.6 °F /  4.8 °C 29.7in /  1007.0hPa WNW 23.2mph /  37.4km/h 23.2mph /  37.4km/h 56% 0in /  0.0mm
18:10 55.2 °F /  12.9 °C 39.7 °F /  4.3 °C 29.7in /  1006.5hPa West 15mph /  24.1km/h 23.9mph /  38.5km/h 56% 0in /  0.0mm
19:10 54.9 °F /  12.7 °C 39.4 °F /  4.1 °C 29.7in /  1006.9hPa NNW 20.1mph /  32.4km/h 38.5mph /  61.9km/h 56% 0in /  0.0mm
20:10 55 °F /  12.8 °C 38.1 °F /  3.4 °C 29.8in /  1007.4hPa NNW 14.1mph /  22.7km/h 32.7mph /  52.6km/h 53% 0in /  0.0mm
21:10 54.3 °F /  12.4 °C 38.5 °F /  3.6 °C 29.7in /  1007.0hPa NNW 20.8mph /  33.5km/h 28.6mph /  46.1km/h 55% 0in /  0.0mm
22:10 53.6 °F /  12 °C 38.7 °F /  3.7 °C 29.7in /  1007.0hPa WNW 12.6mph /  20.2km/h 33.1mph /  53.3km/h 57% 0in /  0.0mm
23:10 52.7 °F /  11.5 °C 38.3 °F /  3.5 °C 29.7in /  1006.5hPa NNW 13.7mph /  22km/h 23.7mph /  38.2km/h 58% 0in /  0.0mm
Observations météo à CASSIS
WU-History script by Weather Underground - 2 mb